Time,TemperatureF,DewpointF,PressureIn,WindDirection,WindDirectionDegrees,WindSpeedMPH,WindSpeedGustMPH,Humidity,HourlyPrecipIn,Conditions,Clouds,dailyrainin,SoftwareType,DateUTC
2013-07-18 00:01:00,56.1,54.1,30.25,NNE,26,0.0,0.0,93,0.00,,,0.00,WeatherCatV1.15B25,2013-07-18 07:01:00,
2013-07-18 00:06:00,56.2,54.5,30.25,ESE,112,0.0,0.0,94,0.00,,,0.00,WeatherCatV1.15B25,2013-07-18 07:06:00,
2013-07-18 00:11:00,56.3,54.6,30.25,East,101,0.0,1.0,94,0.00,,,0.00,WeatherCatV1.15B25,2013-07-18 07:11:00,
2013-07-18 00:16:00,56.4,54.7,30.25,ESE,102,1.0,1.0,94,0.00,,,0.00,WeatherCatV1.15B25,2013-07-18 07:16:00,
2013-07-18 00:21:00,56.4,54.4,30.25,ESE,102,0.0,1.0,93,0.00,,,0.00,WeatherCatV1.15B25,2013-07-18 07:21:00,
2013-07-18 00:26:00,56.3,54.3,30.25,East,100,1.0,1.0,93,0.00,,,0.00,WeatherCatV1.15B25,2013-07-18 07:26:00,
2013-07-18 00:31:00,56.3,54.3,30.25,East,84,0.0,1.0,93,0.00,,,0.00,WeatherCatV1.15B25,2013-07-18 07:31:00,
2013-07-18 00:36:00,56.2,54.2,30.25,East,84,0.0,0.0,93,0.00,,,0.00,WeatherCatV1.15B25,2013-07-18 07:36:00,
2013-07-18 00:41:00,56.2,54.2,30.25,East,84,0.0,0.0,93,0.00,,,0.00,WeatherCatV1.15B25,2013-07-18 07:41:00,
2013-07-18 00:46:00,56.2,54.2,30.25,East,84,0.0,0.0,93,0.00,,,0.00,WeatherCatV1.15B25,2013-07-18 07:46:00,
2013-07-18 00:51:00,56.1,54.1,30.25,East,84,0.0,0.0,93,0.00,,,0.00,WeatherCatV1.15B25,2013-07-18 07:51:00,
2013-07-18 00:56:00,56.0,54.0,30.25,East,84,0.0,0.0,93,0.00,,,0.00,WeatherCatV1.15B25,2013-07-18 07:56:00,
2013-07-18 01:01:00,55.9,54.2,30.25,East,86,0.0,0.0,94,0.00,,,0.00,WeatherCatV1.15B25,2013-07-18 08:01:00,
2013-07-18 01:06:00,55.8,53.8,30.25,East,86,0.0,0.0,93,0.00,,,0.00,WeatherCatV1.15B25,2013-07-18 08:06:00,
2013-07-18 01:11:00,55.8,54.1,30.25,East,86,0.0,0.0,94,0.00,,,0.00,WeatherCatV1.15B25,2013-07-18 08:11:00,
2013-07-18 01:16:00,55.8,54.1,30.25,East,86,0.0,0.0,94,0.00,,,0.00,WeatherCatV1.15B25,2013-07-18 08:16:00,
2013-07-18 01:21:00,55.6,53.9,30.25,East,79,0.0,0.0,94,0.00,,,0.00,WeatherCatV1.15B25,2013-07-18 08:21:00,
2013-07-18 01:26:00,55.5,53.8,30.25,East,79,0.0,0.0,94,0.00,,,0.00,WeatherCatV1.15B25,2013-07-18 08:26:00,
2013-07-18 01:31:00,55.3,53.6,30.25,East,79,0.0,0.0,94,0.00,,,0.00,WeatherCatV1.15B25,2013-07-18 08:31:00,
2013-07-18 01:36:00,55.1,53.4,30.25,East,79,0.0,0.0,94,0.00,,,0.00,WeatherCatV1.15B25,2013-07-18 08:36:00,
2013-07-18 01:41:00,55.0,53.3,30.25,East,79,0.0,0.0,94,0.00,,,0.00,WeatherCatV1.15B25,2013-07-18 08:41:00,
2013-07-18 01:46:00,54.8,53.1,30.25,East,79,0.0,0.0,94,0.00,,,0.00,WeatherCatV1.15B25,2013-07-18 08:46:00,
2013-07-18 01:51:00,54.6,52.9,30.25,East,79,0.0,0.0,94,0.00,,,0.00,WeatherCatV1.15B25,2013-07-18 08:51:00,
2013-07-18 01:56:00,54.5,52.8,30.25,East,79,0.0,0.0,94,0.00,,,0.00,WeatherCatV1.15B25,2013-07-18 08:56:00,
2013-07-18 02:01:00,54.4,52.7,30.25,East,79,0.0,0.0,94,0.00,,,0.00,WeatherCatV1.15B25,2013-07-18 09:01:00,
2013-07-18 02:06:00,54.3,52.9,30.25,East,79,0.0,0.0,95,0.00,,,0.00,WeatherCatV1.15B25,2013-07-18 09:06:00,
2013-07-18 02:11:00,54.3,52.9,30.25,East,79,0.0,0.0,95,0.00,,,0.00,WeatherCatV1.15B25,2013-07-18 09:11:00,
2013-07-18 02:16:00,54.2,52.8,30.25,East,79,0.0,0.0,95,0.00,,,0.00,WeatherCatV1.15B25,2013-07-18 09:16:00,
2013-07-18 02:21:00,54.2,52.8,30.25,East,79,0.0,0.0,95,0.00,,,0.00,WeatherCatV1.15B25,2013-07-18 09:21:00,
2013-07-18 02:26:00,54.2,52.8,30.25,East,79,0.0,0.0,95,0.00,,,0.00,WeatherCatV1.15B25,2013-07-18 09:26:00,
2013-07-18 02:31:00,54.2,52.8,30.25,East,79,0.0,0.0,95,0.00,,,0.00,WeatherCatV1.15B25,2013-07-18 09:31:00,
2013-07-18 02:36:00,54.3,52.9,30.25,East,79,0.0,0.0,95,0.00,,,0.00,WeatherCatV1.15B25,2013-07-18 09:36:00,
2013-07-18 02:41:00,54.4,53.0,30.25,East,79,0.0,0.0,95,0.00,,,0.00,WeatherCatV1.15B25,2013-07-18 09:41:00,
2013-07-18 02:46:00,54.5,53.1,30.25,East,79,0.0,0.0,95,0.00,,,0.00,WeatherCatV1.15B25,2013-07-18 09:46:00,
2013-07-18 02:51:00,54.6,53.2,30.25,ENE,76,0.0,0.0,95,0.00,,,0.00,WeatherCatV1.15B25,2013-07-18 09:51:00,
2013-07-18 02:56:00,54.7,53.3,30.25,ENE,76,0.0,0.0,95,0.00,,,0.00,WeatherCatV1.15B25,2013-07-18 09:56:00,
2013-07-18 03:01:00,54.9,53.5,30.25,ENE,77,0.0,0.0,95,0.00,,,0.00,WeatherCatV1.15B25,2013-07-18 10:01:00,
2013-07-18 03:06:00,55.1,53.7,30.25,ENE,77,0.0,0.0,95,0.00,,,0.00,WeatherCatV1.15B25,2013-07-18 10:06:00,
2013-07-18 03:11:00,55.2,53.8,30.25,ENE,77,0.0,0.0,95,0.00,,,0.00,WeatherCatV1.15B25,2013-07-18 10:11:00,
2013-07-18 03:16:00,55.3,53.9,30.25,ENE,76,0.0,0.0,95,0.00,,,0.00,WeatherCatV1.15B25,2013-07-18 10:16:00,
2013-07-18 03:21:00,55.4,54.0,30.25,ENE,77,0.0,0.0,95,0.00,,,0.00,WeatherCatV1.15B25,2013-07-18 10:21:00,
2013-07-18 03:26:00,55.4,54.0,30.25,ENE,76,0.0,0.0,95,0.00,,,0.00,WeatherCatV1.15B25,2013-07-18 10:26:00,
2013-07-18 03:31:00,55.4,54.0,30.25,ENE,77,0.0,0.0,95,0.00,,,0.00,WeatherCatV1.15B25,2013-07-18 10:31:00,
2013-07-18 03:36:00,55.4,54.0,30.25,ENE,76,0.0,0.0,95,0.00,,,0.00,WeatherCatV1.15B25,2013-07-18 10:36:00,
2013-07-18 03:41:00,55.4,54.0,30.25,ENE,77,0.0,0.0,95,0.00,,,0.00,WeatherCatV1.15B25,2013-07-18 10:41:00,
2013-07-18 03:46:00,55.4,54.0,30.25,ENE,77,0.0,0.0,95,0.00,,,0.00,WeatherCatV1.15B25,2013-07-18 10:46:00,
2013-07-18 03:51:00,55.5,54.1,30.25,ENE,76,0.0,0.0,95,0.00,,,0.00,WeatherCatV1.15B25,2013-07-18 10:51:00,
2013-07-18 03:56:00,55.5,54.1,30.25,ENE,76,0.0,0.0,95,0.00,,,0.00,WeatherCatV1.15B25,2013-07-18 10:56:00,
2013-07-18 04:01:00,55.5,54.1,30.25,ENE,77,0.0,0.0,95,0.00,,,0.00,WeatherCatV1.15B25,2013-07-18 11:01:00,
2013-07-18 04:06:00,55.5,54.1,30.25,ENE,76,0.0,0.0,95,0.00,,,0.00,WeatherCatV1.15B25,2013-07-18 11:06:00,
2013-07-18 04:11:00,55.6,54.2,30.25,ENE,77,0.0,0.0,95,0.00,,,0.00,WeatherCatV1.15B25,2013-07-18 11:11:00,
2013-07-18 04:16:00,55.7,54.3,30.25,ENE,77,0.0,0.0,95,0.00,,,0.00,WeatherCatV1.15B25,2013-07-18 11:16:00,
2013-07-18 04:21:00,55.7,54.3,30.25,ENE,77,0.0,0.0,95,0.00,,,0.00,WeatherCatV1.15B25,2013-07-18 11:21:00,
2013-07-18 04:26:00,55.8,54.4,30.25,ENE,76,0.0,0.0,95,0.00,,,0.00,WeatherCatV1.15B25,2013-07-18 11:26:00,
2013-07-18 04:31:00,55.8,54.4,30.25,ENE,77,0.0,0.0,95,0.00,,,0.00,WeatherCatV1.15B25,2013-07-18 11:31:00,
2013-07-18 04:36:00,55.9,54.2,30.25,ENE,76,0.0,0.0,94,0.00,,,0.00,WeatherCatV1.15B25,2013-07-18 11:36:00,
2013-07-18 04:41:00,55.9,54.2,30.25,ENE,76,0.0,0.0,94,0.00,,,0.00,WeatherCatV1.15B25,2013-07-18 11:41:00,
2013-07-18 04:46:00,56.0,54.6,30.25,ENE,76,0.0,0.0,95,0.00,,,0.00,WeatherCatV1.15B25,2013-07-18 11:46:00,
2013-07-18 04:51:00,56.0,54.3,30.25,ENE,76,0.0,0.0,94,0.00,,,0.00,WeatherCatV1.15B25,2013-07-18 11:51:00,
2013-07-18 04:56:00,56.1,54.4,30.25,ENE,76,0.0,0.0,94,0.00,,,0.00,WeatherCatV1.15B25,2013-07-18 11:56:00,
2013-07-18 05:01:00,56.1,54.4,30.25,ENE,77,0.0,0.0,94,0.00,,,0.00,WeatherCatV1.15B25,2013-07-18 12:01:00,
2013-07-18 05:06:00,56.2,54.5,30.25,ENE,76,0.0,0.0,94,0.00,,,0.00,WeatherCatV1.15B25,2013-07-18 12:06:00,
2013-07-18 05:11:00,56.2,54.5,30.25,ENE,77,0.0,0.0,94,0.00,,,0.00,WeatherCatV1.15B25,2013-07-18 12:11:00,
2013-07-18 05:16:00,56.2,54.5,30.25,ENE,76,0.0,0.0,94,0.00,,,0.00,WeatherCatV1.15B25,2013-07-18 12:16:00,
2013-07-18 05:21:00,56.1,54.4,30.25,ENE,77,0.0,0.0,94,0.00,,,0.00,WeatherCatV1.15B25,2013-07-18 12:21:00,
2013-07-18 05:26:00,56.0,54.3,30.25,ENE,76,0.0,0.0,94,0.00,,,0.00,WeatherCatV1.15B25,2013-07-18 12:26:00,
2013-07-18 05:31:00,55.9,54.2,30.26,ENE,76,0.0,0.0,94,0.00,,,0.00,WeatherCatV1.15B25,2013-07-18 12:31:00,
2013-07-18 05:36:00,55.9,54.2,30.26,ENE,76,0.0,0.0,94,0.00,,,0.00,WeatherCatV1.15B25,2013-07-18 12:36:00,
2013-07-18 05:41:00,55.9,54.2,30.26,ENE,76,0.0,0.0,94,0.00,,,0.00,WeatherCatV1.15B25,2013-07-18 12:41:00,
2013-07-18 05:46:00,55.9,54.2,30.26,ENE,76,0.0,0.0,94,0.00,,,0.00,WeatherCatV1.15B25,2013-07-18 12:46:00,
2013-07-18 05:51:00,56.0,54.3,30.26,ENE,76,0.0,0.0,94,0.00,,,0.00,WeatherCatV1.15B25,2013-07-18 12:51:00,
2013-07-18 05:56:00,56.1,54.4,30.26,ENE,77,0.0,0.0,94,0.00,,,0.00,WeatherCatV1.15B25,2013-07-18 12:56:00,
2013-07-18 06:01:00,56.2,54.5,30.26,ENE,77,0.0,0.0,94,0.00,,,0.00,WeatherCatV1.15B25,2013-07-18 13:01:00,
2013-07-18 06:06:00,56.3,54.6,30.26,ENE,77,0.0,0.0,94,0.00,,,0.00,WeatherCatV1.15B25,2013-07-18 13:06:00,
2013-07-18 06:11:00,56.4,54.7,30.26,ENE,76,0.0,0.0,94,0.00,,,0.00,WeatherCatV1.15B25,2013-07-18 13:11:00,
2013-07-18 06:16:00,56.6,54.9,30.26,East,82,0.0,0.0,94,0.00,,,0.00,WeatherCatV1.15B25,2013-07-18 13:16:00,
2013-07-18 06:21:00,56.6,54.9,30.26,SSW,212,1.0,1.0,94,0.00,,,0.00,WeatherCatV1.15B25,2013-07-18 13:21:00,
2013-07-18 06:26:00,56.5,54.5,30.26,SW,229,2.0,2.0,93,0.00,,,0.00,WeatherCatV1.15B25,2013-07-18 13:26:00,
2013-07-18 06:31:00,56.6,54.6,30.27,WNW,288,1.0,2.0,93,0.00,,,0.00,WeatherCatV1.15B25,2013-07-18 13:31:00,
2013-07-18 06:36:00,56.6,54.6,30.27,West,281,0.0,0.0,93,0.00,,,0.00,WeatherCatV1.15B25,2013-07-18 13:36:00,
2013-07-18 06:41:00,56.8,54.8,30.27,WNW,283,0.0,1.0,93,0.00,,,0.00,WeatherCatV1.15B25,2013-07-18 13:41:00,
2013-07-18 06:46:00,57.0,55.0,30.27,WNW,283,0.0,0.0,93,0.00,,,0.00,WeatherCatV1.15B25,2013-07-18 13:46:00,
2013-07-18 06:51:00,57.0,54.7,30.27,WNW,289,1.0,2.0,92,0.00,,,0.00,WeatherCatV1.15B25,2013-07-18 13:51:00,
2013-07-18 06:56:00,57.0,54.4,30.27,West,262,0.0,2.0,91,0.00,,,0.00,WeatherCatV1.15B25,2013-07-18 13:56:00,
2013-07-18 07:01:00,57.1,54.8,30.27,WNW,288,0.0,1.0,92,0.00,,,0.00,WeatherCatV1.15B25,2013-07-18 14:01:00,
2013-07-18 07:06:00,57.2,54.6,30.27,SW,218,1.0,1.0,91,0.00,,,0.00,WeatherCatV1.15B25,2013-07-18 14:06:00,
2013-07-18 07:11:00,57.2,54.6,30.27,WSW,243,1.0,1.0,91,0.00,,,0.00,WeatherCatV1.15B25,2013-07-18 14:11:00,
2013-07-18 07:16:00,57.3,54.4,30.27,SW,226,0.0,1.0,90,0.00,,,0.00,WeatherCatV1.15B25,2013-07-18 14:16:00,
2013-07-18 07:21:00,57.3,54.4,30.27,SSW,208,1.0,3.0,90,0.00,,,0.00,WeatherCatV1.15B25,2013-07-18 14:21:00,
2013-07-18 07:26:00,57.4,54.5,30.27,SSW,208,1.0,2.0,90,0.00,,,0.00,WeatherCatV1.15B25,2013-07-18 14:26:00,
2013-07-18 07:31:00,57.4,54.5,30.27,West,276,0.0,1.0,90,0.00,,,0.00,WeatherCatV1.15B25,2013-07-18 14:31:00,
2013-07-18 07:36:00,57.5,54.6,30.27,SW,221,0.0,2.0,90,0.00,,,0.00,WeatherCatV1.15B25,2013-07-18 14:36:00,
2013-07-18 07:41:00,57.6,54.7,30.28,West,271,0.0,1.0,90,0.00,,,0.00,WeatherCatV1.15B25,2013-07-18 14:41:00,
2013-07-18 07:46:00,57.7,54.8,30.28,West,277,1.0,1.0,90,0.00,,,0.00,WeatherCatV1.15B25,2013-07-18 14:46:00,
2013-07-18 07:51:00,57.8,54.9,30.28,West,277,1.0,1.0,90,0.00,,,0.00,WeatherCatV1.15B25,2013-07-18 14:51:00,
2013-07-18 07:56:00,57.9,55.0,30.28,West,277,0.0,0.0,90,0.00,,,0.00,WeatherCatV1.15B25,2013-07-18 14:56:00,
2013-07-18 08:01:00,58.1,55.2,30.28,West,277,0.0,1.0,90,0.00,,,0.00,WeatherCatV1.15B25,2013-07-18 15:01:00,
2013-07-18 08:06:00,58.2,55.0,30.27,West,277,0.0,0.0,89,0.00,,,0.00,WeatherCatV1.15B25,2013-07-18 15:06:00,
2013-07-18 08:11:00,58.4,55.2,30.27,West,277,0.0,0.0,89,0.00,,,0.00,WeatherCatV1.15B25,2013-07-18 15:11:00,
2013-07-18 08:16:00,58.7,55.5,30.27,West,277,1.0,1.0,89,0.00,,,0.00,WeatherCatV1.15B25,2013-07-18 15:16:00,
2013-07-18 08:21:00,58.8,55.3,30.28,WNW,285,0.0,2.0,88,0.00,,,0.00,WeatherCatV1.15B25,2013-07-18 15:21:00,
2013-07-18 08:26:00,58.8,55.6,30.28,WNW,284,0.0,0.0,89,0.00,,,0.00,WeatherCatV1.15B25,2013-07-18 15:26:00,
2013-07-18 08:31:00,59.0,55.8,30.28,WNW,284,0.0,1.0,89,0.00,,,0.00,WeatherCatV1.15B25,2013-07-18 15:31:00,
2013-07-18 08:36:00,59.1,55.9,30.28,West,273,0.0,2.0,89,0.00,,,0.00,WeatherCatV1.15B25,2013-07-18 15:36:00,
2013-07-18 08:41:00,59.3,55.7,30.28,WNW,298,1.0,2.0,88,0.00,,,0.00,WeatherCatV1.15B25,2013-07-18 15:41:00,
2013-07-18 08:46:00,59.4,55.8,30.28,WNW,294,0.0,1.0,88,0.00,,,0.00,WeatherCatV1.15B25,2013-07-18 15:46:00,
2013-07-18 08:51:00,59.6,56.0,30.28,WNW,295,0.0,1.0,88,0.00,,,0.00,WeatherCatV1.15B25,2013-07-18 15:51:00,
2013-07-18 08:56:00,59.8,55.9,30.28,ENE,57,2.0,2.0,87,0.00,,,0.00,WeatherCatV1.15B25,2013-07-18 15:56:00,
2013-07-18 09:01:00,59.9,56.0,30.28,NE,56,1.0,1.0,87,0.00,,,0.00,WeatherCatV1.15B25,2013-07-18 16:01:00,
2013-07-18 09:06:00,60.0,56.1,30.28,NNE,32,2.0,3.0,87,0.00,,,0.00,WeatherCatV1.15B25,2013-07-18 16:06:00,
2013-07-18 09:11:00,60.1,56.2,30.28,North,1,2.0,4.0,87,0.00,,,0.00,WeatherCatV1.15B25,2013-07-18 16:11:00,
2013-07-18 09:16:00,60.1,55.9,30.28,North,351,2.0,3.0,86,0.00,,,0.00,WeatherCatV1.15B25,2013-07-18 16:16:00,
2013-07-18 09:21:00,60.1,56.2,30.28,SW,226,3.0,3.0,87,0.00,,,0.00,WeatherCatV1.15B25,2013-07-18 16:21:00,
2013-07-18 09:26:00,60.5,56.3,30.28,NE,43,2.0,2.0,86,0.00,,,0.00,WeatherCatV1.15B25,2013-07-18 16:26:00,
2013-07-18 09:31:00,60.6,55.7,30.28,NE,47,1.0,2.0,84,0.00,,,0.00,WeatherCatV1.15B25,2013-07-18 16:31:00,
2013-07-18 09:36:00,60.9,56.4,30.28,WSW,256,2.0,2.0,85,0.00,,,0.00,WeatherCatV1.15B25,2013-07-18 16:36:00,
2013-07-18 09:41:00,61.2,56.3,30.27,NNE,24,0.0,1.0,84,0.00,,,0.00,WeatherCatV1.15B25,2013-07-18 16:41:00,
2013-07-18 09:46:00,61.4,56.2,30.27,NNE,13,0.0,1.0,83,0.00,,,0.00,WeatherCatV1.15B25,2013-07-18 16:46:00,
2013-07-18 09:51:00,62.1,56.9,30.27,ENE,62,0.0,1.0,83,0.00,,,0.00,WeatherCatV1.15B25,2013-07-18 16:51:00,
2013-07-18 09:56:00,62.3,56.4,30.27,NNE,25,1.0,1.0,81,0.00,,,0.00,WeatherCatV1.15B25,2013-07-18 16:56:00,
2013-07-18 10:01:00,62.5,56.6,30.27,SE,124,1.0,2.0,81,0.00,,,0.00,WeatherCatV1.15B25,2013-07-18 17:01:00,
2013-07-18 10:06:00,63.4,57.1,30.27,SE,125,0.0,1.0,80,0.00,,,0.00,WeatherCatV1.15B25,2013-07-18 17:06:00,
2013-07-18 10:11:00,63.7,57.1,30.27,WSW,239,2.0,4.0,79,0.00,,,0.00,WeatherCatV1.15B25,2013-07-18 17:11:00,
2013-07-18 10:16:00,63.5,57.2,30.27,WNW,294,0.0,1.0,80,0.00,,,0.00,WeatherCatV1.15B25,2013-07-18 17:16:00,
2013-07-18 10:21:00,63.5,56.5,30.27,WNW,301,2.0,4.0,78,0.00,,,0.00,WeatherCatV1.15B25,2013-07-18 17:21:00,
2013-07-18 10:26:00,63.0,56.4,30.27,SSE,152,2.0,2.0,79,0.00,,,0.00,WeatherCatV1.15B25,2013-07-18 17:26:00,
2013-07-18 10:31:00,63.3,56.7,30.27,West,266,2.0,4.0,79,0.00,,,0.00,WeatherCatV1.15B25,2013-07-18 17:31:00,
2013-07-18 10:36:00,63.4,56.8,30.27,West,266,1.0,2.0,79,0.00,,,0.00,WeatherCatV1.15B25,2013-07-18 17:36:00,
2013-07-18 10:41:00,63.8,56.4,30.27,WSW,250,2.0,3.0,77,0.00,,,0.00,WeatherCatV1.15B25,2013-07-18 17:41:00,
2013-07-18 10:46:00,64.1,57.1,30.27,West,267,0.0,0.0,78,0.00,,,0.00,WeatherCatV1.15B25,2013-07-18 17:46:00,
2013-07-18 10:51:00,65.3,57.2,30.27,NNW,335,1.0,2.0,75,0.00,,,0.00,WeatherCatV1.15B25,2013-07-18 17:51:00,
2013-07-18 10:56:00,65.6,57.5,30.27,NW,326,3.0,3.0,75,0.00,,,0.00,WeatherCatV1.15B25,2013-07-18 17:56:00,
2013-07-18 11:01:00,65.5,57.0,30.26,SW,226,0.0,3.0,74,0.00,,,0.00,WeatherCatV1.15B25,2013-07-18 18:01:00,
2013-07-18 11:06:00,65.8,57.6,30.26,SW,236,1.0,1.0,75,0.00,,,0.00,WeatherCatV1.15B25,2013-07-18 18:06:00,
2013-07-18 11:11:00,66.2,57.7,30.26,SSE,153,1.0,3.0,74,0.00,,,0.00,WeatherCatV1.15B25,2013-07-18 18:11:00,
2013-07-18 11:16:00,65.8,57.3,30.26,WNW,285,0.0,6.0,74,0.00,,,0.00,WeatherCatV1.15B25,2013-07-18 18:16:00,
2013-07-18 11:21:00,65.4,57.6,30.26,WNW,294,1.0,4.0,76,0.00,,,0.00,WeatherCatV1.15B25,2013-07-18 18:21:00,
2013-07-18 11:26:00,65.6,57.5,30.26,NW,316,3.0,4.0,75,0.00,,,0.00,WeatherCatV1.15B25,2013-07-18 18:26:00,
2013-07-18 11:31:00,65.6,57.5,30.26,NNW,347,1.0,4.0,75,0.00,,,0.00,WeatherCatV1.15B25,2013-07-18 18:31:00,
2013-07-18 11:36:00,65.7,57.9,30.26,North,356,2.0,4.0,76,0.00,,,0.00,WeatherCatV1.15B25,2013-07-18 18:36:00,
2013-07-18 11:41:00,66.0,58.2,30.26,WNW,298,4.0,5.0,76,0.00,,,0.00,WeatherCatV1.15B25,2013-07-18 18:41:00,
2013-07-18 11:46:00,65.6,57.8,30.26,WNW,294,0.0,1.0,76,0.00,,,0.00,WeatherCatV1.15B25,2013-07-18 18:46:00,
2013-07-18 11:51:00,65.8,57.6,30.26,NNE,20,2.0,5.0,75,0.00,,,0.00,WeatherCatV1.15B25,2013-07-18 18:51:00,
2013-07-18 11:56:00,65.9,58.1,30.26,ENE,68,2.0,2.0,76,0.00,,,0.00,WeatherCatV1.15B25,2013-07-18 18:56:00,
2013-07-18 12:01:00,66.6,58.4,30.25,WNW,291,3.0,4.0,75,0.00,,,0.00,WeatherCatV1.15B25,2013-07-18 19:01:00,
2013-07-18 12:06:00,66.1,57.9,30.26,North,358,1.0,6.0,75,0.00,,,0.00,WeatherCatV1.15B25,2013-07-18 19:06:00,
2013-07-18 12:11:00,66.2,58.4,30.26,NW,311,5.0,6.0,76,0.00,,,0.00,WeatherCatV1.15B25,2013-07-18 19:11:00,
2013-07-18 12:16:00,65.9,57.7,30.26,WSW,239,3.0,6.0,75,0.00,,,0.00,WeatherCatV1.15B25,2013-07-18 19:16:00,
2013-07-18 12:21:00,66.0,58.2,30.25,WNW,285,1.0,2.0,76,0.00,,,0.00,WeatherCatV1.15B25,2013-07-18 19:21:00,
2013-07-18 12:26:00,67.1,58.9,30.26,WNW,286,3.0,5.0,75,0.00,,,0.00,WeatherCatV1.15B25,2013-07-18 19:26:00,
2013-07-18 12:31:00,66.5,57.9,30.25,North,354,1.0,3.0,74,0.00,,,0.00,WeatherCatV1.15B25,2013-07-18 19:31:00,
2013-07-18 12:36:00,66.4,58.6,30.25,NW,318,0.0,4.0,76,0.00,,,0.00,WeatherCatV1.15B25,2013-07-18 19:36:00,
2013-07-18 12:41:00,66.7,58.1,30.25,SSW,201,1.0,5.0,74,0.00,,,0.00,WeatherCatV1.15B25,2013-07-18 19:41:00,
2013-07-18 12:46:00,67.0,58.0,30.25,North,359,3.0,6.0,73,0.00,,,0.00,WeatherCatV1.15B25,2013-07-18 19:46:00,
2013-07-18 12:51:00,67.3,59.1,30.25,West,264,1.0,5.0,75,0.00,,,0.00,WeatherCatV1.15B25,2013-07-18 19:51:00,
2013-07-18 12:56:00,67.5,58.5,30.25,SSW,198,3.0,4.0,73,0.00,,,0.00,WeatherCatV1.15B25,2013-07-18 19:56:00,
2013-07-18 13:01:00,67.7,58.7,30.25,WNW,290,5.0,6.0,73,0.00,,,0.00,WeatherCatV1.15B25,2013-07-18 20:01:00,
2013-07-18 13:06:00,67.8,58.8,30.25,WSW,247,5.0,6.0,73,0.00,,,0.00,WeatherCatV1.15B25,2013-07-18 20:06:00,
2013-07-18 13:11:00,67.6,59.0,30.25,West,281,5.0,6.0,74,0.00,,,0.00,WeatherCatV1.15B25,2013-07-18 20:11:00,
2013-07-18 13:16:00,67.7,58.3,30.25,WNW,293,1.0,8.0,72,0.00,,,0.00,WeatherCatV1.15B25,2013-07-18 20:16:00,
2013-07-18 13:21:00,68.0,58.2,30.25,South,183,4.0,4.0,71,0.00,,,0.00,WeatherCatV1.15B25,2013-07-18 20:21:00,
2013-07-18 13:26:00,67.8,58.4,30.24,SW,229,3.0,3.0,72,0.00,,,0.00,WeatherCatV1.15B25,2013-07-18 20:26:00,
2013-07-18 13:31:00,68.1,58.3,30.24,WSW,255,2.0,4.0,71,0.00,,,0.00,WeatherCatV1.15B25,2013-07-18 20:31:00,
2013-07-18 13:36:00,68.4,58.6,30.24,West,259,0.0,4.0,71,0.00,,,0.00,WeatherCatV1.15B25,2013-07-18 20:36:00,
2013-07-18 13:41:00,68.9,59.1,30.24,West,276,2.0,6.0,71,0.00,,,0.00,WeatherCatV1.15B25,2013-07-18 20:41:00,
2013-07-18 13:46:00,68.7,58.1,30.24,SSW,205,5.0,10.0,69,0.00,,,0.00,WeatherCatV1.15B25,2013-07-18 20:46:00,
2013-07-18 13:51:00,69.2,59.0,30.24,WNW,290,1.0,3.0,70,0.00,,,0.00,WeatherCatV1.15B25,2013-07-18 20:51:00,
2013-07-18 13:56:00,69.8,59.2,30.24,NW,326,1.0,5.0,69,0.00,,,0.00,WeatherCatV1.15B25,2013-07-18 20:56:00,
2013-07-18 14:01:00,69.8,58.7,30.23,SSW,211,6.0,6.0,68,0.00,,,0.00,WeatherCatV1.15B25,2013-07-18 21:01:00,
2013-07-18 14:06:00,70.1,59.0,30.23,WNW,286,1.0,4.0,68,0.00,,,0.00,WeatherCatV1.15B25,2013-07-18 21:06:00,
2013-07-18 14:11:00,70.9,59.8,30.23,West,266,0.0,6.0,68,0.00,,,0.00,WeatherCatV1.15B25,2013-07-18 21:11:00,
2013-07-18 14:16:00,70.9,59.0,30.23,West,262,3.0,6.0,66,0.00,,,0.00,WeatherCatV1.15B25,2013-07-18 21:16:00,
2013-07-18 14:21:00,70.7,58.8,30.23,SSW,210,2.0,7.0,66,0.00,,,0.00,WeatherCatV1.15B25,2013-07-18 21:21:00,
2013-07-18 14:26:00,71.1,59.6,30.23,NE,50,2.0,6.0,67,0.00,,,0.00,WeatherCatV1.15B25,2013-07-18 21:26:00,
2013-07-18 14:31:00,72.7,59.4,30.23,NNE,21,3.0,9.0,63,0.00,,,0.00,WeatherCatV1.15B25,2013-07-18 21:31:00,
2013-07-18 14:36:00,72.7,59.8,30.23,WSW,246,6.0,7.0,64,0.00,,,0.00,WeatherCatV1.15B25,2013-07-18 21:36:00,
2013-07-18 14:41:00,72.8,59.0,30.23,ESE,120,3.0,8.0,62,0.00,,,0.00,WeatherCatV1.15B25,2013-07-18 21:41:00,
2013-07-18 14:46:00,72.5,60.0,30.22,SSW,198,3.0,10.0,65,0.00,,,0.00,WeatherCatV1.15B25,2013-07-18 21:46:00,
2013-07-18 14:51:00,72.0,59.1,30.22,WSW,239,9.0,9.0,64,0.00,,,0.00,WeatherCatV1.15B25,2013-07-18 21:51:00,
2013-07-18 14:56:00,72.0,59.1,30.22,WNW,298,4.0,5.0,64,0.00,,,0.00,WeatherCatV1.15B25,2013-07-18 21:56:00,
2013-07-18 15:01:00,73.0,59.6,30.22,North,351,2.0,7.0,63,0.00,,,0.00,WeatherCatV1.15B25,2013-07-18 22:01:00,
2013-07-18 15:06:00,72.4,59.1,30.22,SW,236,1.0,5.0,63,0.00,,,0.00,WeatherCatV1.15B25,2013-07-18 22:06:00,
2013-07-18 15:11:00,72.7,59.4,30.22,NE,50,2.0,6.0,63,0.00,,,0.00,WeatherCatV1.15B25,2013-07-18 22:11:00,
2013-07-18 15:16:00,72.8,59.0,30.22,WNW,286,2.0,4.0,62,0.00,,,0.00,WeatherCatV1.15B25,2013-07-18 22:16:00,
2013-07-18 15:21:00,73.4,59.6,30.22,ESE,119,2.0,3.0,62,0.00,,,0.00,WeatherCatV1.15B25,2013-07-18 22:21:00,
2013-07-18 15:26:00,73.7,59.4,30.22,SSW,211,3.0,7.0,61,0.00,,,0.00,WeatherCatV1.15B25,2013-07-18 22:26:00,
2013-07-18 15:31:00,73.6,59.8,30.21,NW,307,3.0,5.0,62,0.00,,,0.00,WeatherCatV1.15B25,2013-07-18 22:31:00,
2013-07-18 15:36:00,73.4,59.1,30.21,West,261,4.0,6.0,61,0.00,,,0.00,WeatherCatV1.15B25,2013-07-18 22:36:00,
2013-07-18 15:41:00,73.7,59.4,30.21,NW,304,6.0,10.0,61,0.00,,,0.00,WeatherCatV1.15B25,2013-07-18 22:41:00,
2013-07-18 15:46:00,73.2,59.4,30.21,NW,307,8.0,8.0,62,0.00,,,0.00,WeatherCatV1.15B25,2013-07-18 22:46:00,
2013-07-18 15:51:00,73.7,59.9,30.21,SW,236,1.0,3.0,62,0.00,,,0.00,WeatherCatV1.15B25,2013-07-18 22:51:00,
2013-07-18 15:56:00,75.4,60.1,30.21,South,186,1.0,4.0,59,0.00,,,0.00,WeatherCatV1.15B25,2013-07-18 22:56:00,
2013-07-18 16:01:00,76.3,59.4,30.21,WNW,286,2.0,4.0,56,0.00,,,0.00,WeatherCatV1.15B25,2013-07-18 23:01:00,
2013-07-18 16:05:00,75.3,59.5,30.20,WNW,284,6.0,6.0,58,0.00,,,0.00,WeatherCatV1.15B25,2013-07-18 23:05:00,
2013-07-18 16:10:00,75.5,59.7,30.20,WNW,288,6.0,6.0,58,0.00,,,0.00,WeatherCatV1.15B25,2013-07-18 23:10:00,
2013-07-18 16:15:00,75.0,58.7,30.20,NW,308,2.0,4.0,57,0.00,,,0.00,WeatherCatV1.15B25,2013-07-18 23:15:00,
2013-07-18 16:20:00,75.1,59.3,30.20,North,5,3.0,5.0,58,0.00,,,0.00,WeatherCatV1.15B25,2013-07-18 23:20:00,
2013-07-18 16:25:00,75.6,59.3,30.20,WNW,285,3.0,6.0,57,0.00,,,0.00,WeatherCatV1.15B25,2013-07-18 23:25:00,
2013-07-18 16:30:00,75.8,59.0,30.20,SSW,210,1.0,6.0,56,0.00,,,0.00,WeatherCatV1.15B25,2013-07-18 23:30:00,
2013-07-18 16:35:00,75.7,59.4,30.20,West,272,3.0,6.0,57,0.00,,,0.00,WeatherCatV1.15B25,2013-07-18 23:35:00,
2013-07-18 16:40:00,75.7,58.9,30.19,South,172,3.0,4.0,56,0.00,,,0.00,WeatherCatV1.15B25,2013-07-18 23:40:00,
2013-07-18 16:45:00,75.8,59.0,30.19,South,174,5.0,8.0,56,0.00,,,0.00,WeatherCatV1.15B25,2013-07-18 23:45:00,
2013-07-18 16:50:00,75.7,59.4,30.19,West,263,3.0,6.0,57,0.00,,,0.00,WeatherCatV1.15B25,2013-07-18 23:50:00,
2013-07-18 16:55:00,76.3,58.9,30.19,SSE,162,2.0,3.0,55,0.00,,,0.00,WeatherCatV1.15B25,2013-07-18 23:55:00,
2013-07-18 17:00:00,76.3,59.4,30.19,SSW,206,6.0,9.0,56,0.00,,,0.00,WeatherCatV1.15B25,2013-07-19 00:00:00,
2013-07-18 17:05:00,76.4,60.0,30.19,WNW,285,1.0,3.0,57,0.00,,,0.00,WeatherCatV1.15B25,2013-07-19 00:05:00,
2013-07-18 17:10:00,77.1,59.7,30.19,NW,311,0.0,5.0,55,0.00,,,0.00,WeatherCatV1.15B25,2013-07-19 00:10:00,
2013-07-18 17:15:00,76.6,59.2,30.19,SW,236,8.0,8.0,55,0.00,,,0.00,WeatherCatV1.15B25,2013-07-19 00:15:00,
2013-07-18 17:20:00,76.1,59.2,30.18,West,281,3.0,7.0,56,0.00,,,0.00,WeatherCatV1.15B25,2013-07-19 00:20:00,
2013-07-18 17:25:00,75.7,58.9,30.18,ESE,106,0.0,1.0,56,0.00,,,0.00,WeatherCatV1.15B25,2013-07-19 00:25:00,
2013-07-18 17:30:00,76.2,59.3,30.18,WSW,257,0.0,4.0,56,0.00,,,0.00,WeatherCatV1.15B25,2013-07-19 00:30:00,
2013-07-18 17:35:00,76.8,58.9,30.18,NW,321,7.0,10.0,54,0.00,,,0.00,WeatherCatV1.15B25,2013-07-19 00:35:00,
2013-07-18 17:40:00,76.6,59.7,30.18,West,261,3.0,3.0,56,0.00,,,0.00,WeatherCatV1.15B25,2013-07-19 00:40:00,
2013-07-18 17:45:00,76.5,59.6,30.18,NNW,335,2.0,2.0,56,0.00,,,0.00,WeatherCatV1.15B25,2013-07-19 00:45:00,
2013-07-18 17:50:00,77.5,60.0,30.18,West,267,2.0,4.0,55,0.00,,,0.00,WeatherCatV1.15B25,2013-07-19 00:50:00,
2013-07-18 17:55:00,77.4,59.4,30.18,WNW,300,2.0,6.0,54,0.00,,,0.00,WeatherCatV1.15B25,2013-07-19 00:55:00,
2013-07-18 18:00:00,76.9,59.5,30.18,West,276,5.0,6.0,55,0.00,,,0.00,WeatherCatV1.15B25,2013-07-19 01:00:00,
2013-07-18 18:05:00,76.3,59.4,30.18,WSW,247,1.0,2.0,56,0.00,,,0.00,WeatherCatV1.15B25,2013-07-19 01:05:00,
2013-07-18 18:10:00,76.2,59.3,30.18,West,262,2.0,6.0,56,0.00,,,0.00,WeatherCatV1.15B25,2013-07-19 01:10:00,
2013-07-18 18:15:00,76.3,59.4,30.18,NNE,18,3.0,5.0,56,0.00,,,0.00,WeatherCatV1.15B25,2013-07-19 01:15:00,
2013-07-18 18:20:00,76.0,59.2,30.18,WNW,288,2.0,4.0,56,0.00,,,0.00,WeatherCatV1.15B25,2013-07-19 01:20:00,
2013-07-18 18:25:00,76.2,59.3,30.18,WNW,287,2.0,7.0,56,0.00,,,0.00,WeatherCatV1.15B25,2013-07-19 01:25:00,
2013-07-18 18:30:00,76.2,59.8,30.18,North,351,3.0,4.0,57,0.00,,,0.00,WeatherCatV1.15B25,2013-07-19 01:30:00,
2013-07-18 18:35:00,76.1,59.7,30.17,NNW,327,1.0,5.0,57,0.00,,,0.00,WeatherCatV1.15B25,2013-07-19 01:35:00,
2013-07-18 18:40:00,76.6,59.7,30.18,WSW,242,0.0,3.0,56,0.00,,,0.00,WeatherCatV1.15B25,2013-07-19 01:40:00,
2013-07-18 18:45:00,77.5,60.0,30.17,NW,312,3.0,7.0,55,0.00,,,0.00,WeatherCatV1.15B25,2013-07-19 01:45:00,
2013-07-18 18:50:00,77.4,60.5,30.18,WNW,299,3.0,5.0,56,0.00,,,0.00,WeatherCatV1.15B25,2013-07-19 01:50:00,
2013-07-18 18:55:00,77.1,59.2,30.18,NW,305,4.0,4.0,54,0.00,,,0.00,WeatherCatV1.15B25,2013-07-19 01:55:00,
2013-07-18 19:00:00,76.5,59.1,30.17,NNW,341,4.0,7.0,55,0.00,,,0.00,WeatherCatV1.15B25,2013-07-19 02:00:00,
2013-07-18 19:05:00,76.0,59.2,30.17,NNE,29,2.0,5.0,56,0.00,,,0.00,WeatherCatV1.15B25,2013-07-19 02:05:00,
2013-07-18 19:10:00,76.3,60.4,30.17,WSW,257,3.0,6.0,58,0.00,,,0.00,WeatherCatV1.15B25,2013-07-19 02:10:00,
2013-07-18 19:15:00,76.4,59.5,30.17,NNW,348,4.0,6.0,56,0.00,,,0.00,WeatherCatV1.15B25,2013-07-19 02:15:00,
2013-07-18 19:20:00,76.4,59.5,30.17,WNW,295,2.0,6.0,56,0.00,,,0.00,WeatherCatV1.15B25,2013-07-19 02:20:00,
2013-07-18 19:25:00,76.1,59.2,30.17,SW,224,2.0,3.0,56,0.00,,,0.00,WeatherCatV1.15B25,2013-07-19 02:25:00,
2013-07-18 19:30:00,75.6,59.3,30.17,NW,319,2.0,4.0,57,0.00,,,0.00,WeatherCatV1.15B25,2013-07-19 02:30:00,
2013-07-18 19:35:00,75.5,59.7,30.17,North,1,2.0,5.0,58,0.00,,,0.00,WeatherCatV1.15B25,2013-07-19 02:35:00,
2013-07-18 19:40:00,76.0,59.6,30.17,ENE,59,6.0,6.0,57,0.00,,,0.00,WeatherCatV1.15B25,2013-07-19 02:40:00,
2013-07-18 19:45:00,76.0,59.6,30.17,WNW,302,2.0,5.0,57,0.00,,,0.00,WeatherCatV1.15B25,2013-07-19 02:45:00,
2013-07-18 19:50:00,75.8,59.5,30.17,NNW,327,2.0,5.0,57,0.00,,,0.00,WeatherCatV1.15B25,2013-07-19 02:50:00,
2013-07-18 19:55:00,74.7,58.9,30.17,North,354,6.0,6.0,58,0.00,,,0.00,WeatherCatV1.15B25,2013-07-19 02:55:00,
2013-07-18 20:00:00,73.8,59.0,30.17,NNE,18,3.0,3.0,60,0.00,,,0.00,WeatherCatV1.15B25,2013-07-19 03:00:00,
2013-07-18 20:05:00,73.2,58.9,30.18,North,6,4.0,6.0,61,0.00,,,0.00,WeatherCatV1.15B25,2013-07-19 03:05:00,
2013-07-18 20:10:00,72.7,58.9,30.18,NW,315,2.0,3.0,62,0.00,,,0.00,WeatherCatV1.15B25,2013-07-19 03:10:00,
2013-07-18 20:15:00,72.3,59.0,30.17,NW,304,1.0,2.0,63,0.00,,,0.00,WeatherCatV1.15B25,2013-07-19 03:15:00,
2013-07-18 20:20:00,72.2,59.3,30.18,NW,314,1.0,4.0,64,0.00,,,0.00,WeatherCatV1.15B25,2013-07-19 03:20:00,
2013-07-18 20:25:00,71.9,59.0,30.18,NW,308,3.0,7.0,64,0.00,,,0.00,WeatherCatV1.15B25,2013-07-19 03:25:00,
2013-07-18 20:30:00,71.5,59.1,30.18,NW,322,3.0,4.0,65,0.00,,,0.00,WeatherCatV1.15B25,2013-07-19 03:30:00,
2013-07-18 20:35:00,71.1,59.2,30.18,NNW,329,3.0,3.0,66,0.00,,,0.00,WeatherCatV1.15B25,2013-07-19 03:35:00,
2013-07-18 20:40:00,70.8,59.3,30.17,NNW,331,1.0,2.0,67,0.00,,,0.00,WeatherCatV1.15B25,2013-07-19 03:40:00,
2013-07-18 20:45:00,70.5,59.0,30.17,NNW,328,2.0,3.0,67,0.00,,,0.00,WeatherCatV1.15B25,2013-07-19 03:45:00,
2013-07-18 20:50:00,70.2,59.1,30.18,NNW,345,1.0,1.0,68,0.00,,,0.00,WeatherCatV1.15B25,2013-07-19 03:50:00,
2013-07-18 20:53:00,70.1,58.6,30.18,NW,304,2.0,2.0,67,0.00,,,0.00,WeatherCatV1.15B25,2013-07-19 03:53:00,
2013-07-18 20:58:00,69.9,59.3,30.17,West,269,0.0,1.0,69,0.00,,,0.00,WeatherCatV1.15B25,2013-07-19 03:58:00,
2013-07-18 21:01:00,69.7,59.1,30.17,West,269,0.0,1.0,69,0.00,,,0.00,WeatherCatV1.15B25,2013-07-19 04:01:00,
2013-07-18 21:06:00,69.2,59.0,30.18,NW,314,0.0,2.0,70,0.00,,,0.00,WeatherCatV1.15B25,2013-07-19 04:06:00,
2013-07-18 21:11:00,68.8,58.6,30.18,NW,311,0.0,1.0,70,0.00,,,0.00,WeatherCatV1.15B25,2013-07-19 04:11:00,
2013-07-18 21:16:00,68.5,58.7,30.18,North,1,1.0,1.0,71,0.00,,,0.00,WeatherCatV1.15B25,2013-07-19 04:16:00,
2013-07-18 21:21:00,68.1,58.7,30.18,North,0,0.0,0.0,72,0.00,,,0.00,WeatherCatV1.15B25,2013-07-19 04:21:00,
2013-07-18 21:26:00,67.6,59.0,30.18,NW,307,1.0,1.0,74,0.00,,,0.00,WeatherCatV1.15B25,2013-07-19 04:26:00,
2013-07-18 21:31:00,67.0,58.8,30.18,NW,304,1.0,2.0,75,0.00,,,0.00,WeatherCatV1.15B25,2013-07-19 04:31:00,
2013-07-18 21:36:00,66.8,58.6,30.18,NW,305,2.0,3.0,75,0.00,,,0.00,WeatherCatV1.15B25,2013-07-19 04:36:00,
2013-07-18 21:41:00,67.1,58.5,30.19,NW,311,2.0,2.0,74,0.00,,,0.00,WeatherCatV1.15B25,2013-07-19 04:41:00,
2013-07-18 21:46:00,67.1,58.5,30.18,NW,315,2.0,2.0,74,0.00,,,0.00,WeatherCatV1.15B25,2013-07-19 04:46:00,
2013-07-18 21:51:00,67.2,58.6,30.18,NW,305,2.0,2.0,74,0.00,,,0.00,WeatherCatV1.15B25,2013-07-19 04:51:00,
2013-07-18 21:56:00,66.7,58.5,30.18,WNW,295,1.0,1.0,75,0.00,,,0.00,WeatherCatV1.15B25,2013-07-19 04:56:00,
2013-07-18 22:01:00,66.3,58.5,30.18,West,274,1.0,1.0,76,0.00,,,0.00,WeatherCatV1.15B25,2013-07-19 05:01:00,
2013-07-18 22:06:00,65.9,58.5,30.18,WNW,295,1.0,2.0,77,0.00,,,0.00,WeatherCatV1.15B25,2013-07-19 05:06:00,
2013-07-18 22:11:00,65.7,58.6,30.19,WNW,300,1.0,2.0,78,0.00,,,0.00,WeatherCatV1.15B25,2013-07-19 05:11:00,
2013-07-18 22:16:00,65.4,58.4,30.19,WNW,300,1.0,1.0,78,0.00,,,0.00,WeatherCatV1.15B25,2013-07-19 05:16:00,
2013-07-18 22:21:00,65.1,58.4,30.18,WNW,284,2.0,2.0,79,0.00,,,0.00,WeatherCatV1.15B25,2013-07-19 05:21:00,
2013-07-18 22:26:00,64.9,58.2,30.18,NNE,25,1.0,1.0,79,0.00,,,0.00,WeatherCatV1.15B25,2013-07-19 05:26:00,
2013-07-18 22:31:00,64.6,58.3,30.18,NE,53,0.0,1.0,80,0.00,,,0.00,WeatherCatV1.15B25,2013-07-19 05:31:00,
2013-07-18 22:36:00,64.3,58.3,30.18,NNE,32,0.0,0.0,81,0.00,,,0.00,WeatherCatV1.15B25,2013-07-19 05:36:00,
2013-07-18 22:41:00,63.9,57.9,30.18,WSW,258,0.0,0.0,81,0.00,,,0.00,WeatherCatV1.15B25,2013-07-19 05:41:00,
2013-07-18 22:46:00,63.7,57.8,30.18,West,259,0.0,0.0,81,0.00,,,0.00,WeatherCatV1.15B25,2013-07-19 05:46:00,
2013-07-18 22:51:00,63.4,57.8,30.18,West,259,0.0,0.0,82,0.00,,,0.00,WeatherCatV1.15B25,2013-07-19 05:51:00,
2013-07-18 22:56:00,63.1,57.8,30.18,WSW,258,0.0,0.0,83,0.00,,,0.00,WeatherCatV1.15B25,2013-07-19 05:56:00,
2013-07-18 23:01:00,62.8,57.6,30.18,WSW,258,0.0,0.0,83,0.00,,,0.00,WeatherCatV1.15B25,2013-07-19 06:01:00,
2013-07-18 23:06:00,62.6,57.7,30.18,West,259,0.0,0.0,84,0.00,,,0.00,WeatherCatV1.15B25,2013-07-19 06:06:00,
2013-07-18 23:11:00,62.6,57.7,30.18,West,259,0.0,0.0,84,0.00,,,0.00,WeatherCatV1.15B25,2013-07-19 06:11:00,
2013-07-18 23:16:00,62.4,57.5,30.18,WSW,258,0.0,0.0,84,0.00,,,0.00,WeatherCatV1.15B25,2013-07-19 06:16:00,
2013-07-18 23:21:00,62.2,57.3,30.18,West,259,0.0,0.0,84,0.00,,,0.00,WeatherCatV1.15B25,2013-07-19 06:21:00,
2013-07-18 23:26:00,61.9,57.3,30.18,WSW,258,0.0,0.0,85,0.00,,,0.00,WeatherCatV1.15B25,2013-07-19 06:26:00,
2013-07-18 23:31:00,61.8,57.2,30.18,WSW,258,0.0,0.0,85,0.00,,,0.00,WeatherCatV1.15B25,2013-07-19 06:31:00,
2013-07-18 23:36:00,61.6,57.4,30.18,West,267,0.0,0.0,86,0.00,,,0.00,WeatherCatV1.15B25,2013-07-19 06:36:00,
2013-07-18 23:41:00,62.0,57.8,30.18,NE,34,0.0,1.0,86,0.00,,,0.00,WeatherCatV1.15B25,2013-07-19 06:41:00,
2013-07-18 23:46:00,62.2,57.6,30.18,NNE,13,1.0,2.0,85,0.00,,,0.00,WeatherCatV1.15B25,2013-07-19 06:46:00,
2013-07-18 23:51:00,62.5,57.6,30.18,NNW,340,2.0,4.0,84,0.00,,,0.00,WeatherCatV1.15B25,2013-07-19 06:51:00,
2013-07-18 23:56:00,62.5,57.6,30.18,North,1,1.0,3.0,84,0.00,,,0.00,WeatherCatV1.15B25,2013-07-19 06:56:00,